Time;durP1;ratioP1;P1;durP2;ratioP2;P2;SDS_P1;SDS_P2;PMS_P1;PMS_P2;Temp;Humidity;BMP_temperature;BMP_pressure;BME280_temperature;BME280_humidity;BME280_pressure;Samples;Min_cycle;Max_cycle;Signal;HPM_P1;HPM_P2
2021/09/04 00:00:28;;;;;;;0.50;0.50;;;;;;;8.03;69.52;98529.00;5091555;28;20050;-70
2021/09/04 00:02:54;;;;;;;0.40;0.40;;;;;;;7.95;69.95;98516.50;5109692;28;20440;-70
2021/09/04 00:05:20;;;;;;;0.50;0.50;;;;;;;7.92;70.61;98516.72;5108266;28;20051;-71
2021/09/04 00:07:46;;;;;;;0.30;0.30;;;;;;;7.92;70.38;98521.91;5109738;28;20040;-70
2021/09/04 00:10:13;;;;;;;0.50;0.50;;;;;;;7.90;70.77;98515.16;5109790;28;20152;-70
2021/09/04 00:12:39;;;;;;;0.40;0.40;;;;;;;7.86;70.29;98523.16;5109587;28;20066;-71
2021/09/04 00:15:06;;;;;;;1.10;0.52;;;;;;;7.88;69.90;98525.66;5109630;28;20500;-70
2021/09/04 00:17:32;;;;;;;0.30;0.30;;;;;;;7.89;68.93;98527.31;5091397;28;20040;-69
2021/09/04 00:19:58;;;;;;;0.40;0.40;;;;;;;7.94;68.39;98532.22;5109761;28;20044;-70
2021/09/04 00:22:24;;;;;;;0.50;0.50;;;;;;;7.95;67.33;98539.88;5109204;28;20069;-70
2021/09/04 00:24:50;;;;;;;0.50;0.50;;;;;;;7.93;67.64;98530.53;5109685;28;20690;-70
2021/09/04 00:27:16;;;;;;;0.40;0.40;;;;;;;7.93;66.82;98533.97;5109379;28;20407;-69
2021/09/04 00:29:42;;;;;;;0.50;0.50;;;;;;;7.95;66.54;98531.28;5094916;28;20116;-70
2021/09/04 00:32:07;;;;;;;0.60;0.60;;;;;;;7.92;66.85;98539.28;5095232;28;20044;-69
2021/09/04 00:34:33;;;;;;;0.40;0.40;;;;;;;7.93;68.13;98549.56;5113394;28;20043;-69
2021/09/04 00:36:59;;;;;;;0.40;0.40;;;;;;;7.95;68.96;98541.69;5112692;28;20038;-70
2021/09/04 00:39:25;;;;;;;0.50;0.50;;;;;;;7.84;69.64;98553.59;5095257;28;20044;-70
2021/09/04 00:41:51;;;;;;;0.60;0.60;;;;;;;7.86;69.53;98548.28;5113344;28;20495;-70
2021/09/04 00:44:18;;;;;;;0.40;0.40;;;;;;;7.82;69.86;98559.81;5103498;28;20521;-69
2021/09/04 00:46:44;;;;;;;0.38;0.38;;;;;;;7.79;69.65;98557.41;5074442;28;20051;-70
2021/09/04 00:49:11;;;;;;;0.55;0.55;;;;;;;7.77;70.45;98559.28;5094512;28;20047;-70
2021/09/04 00:51:37;;;;;;;0.75;0.75;;;;;;;7.79;69.48;98558.25;5111468;28;20105;-71
2021/09/04 00:54:03;;;;;;;0.40;0.40;;;;;;;7.82;69.18;98571.03;5112993;28;20036;-71
2021/09/04 00:56:28;;;;;;;0.90;0.90;;;;;;;7.83;69.07;98570.13;5112738;28;20043;-70
2021/09/04 00:59:02;;;;;;;0.65;0.65;;;;;;;7.77;69.57;98564.47;5112879;28;20040;-70
2021/09/04 01:01:29;;;;;;;0.30;0.30;;;;;;;7.75;69.38;98566.34;5094600;28;20043;-69
2021/09/04 01:03:56;;;;;;;0.30;0.30;;;;;;;7.78;69.77;98584.34;5111779;28;20075;-70
2021/09/04 01:06:22;;;;;;;0.50;0.50;;;;;;;7.76;66.90;98578.38;5111268;28;20065;-69
2021/09/04 01:08:49;;;;;;;0.57;0.57;;;;;;;7.84;66.87;98578.75;5112768;28;20536;-70
2021/09/04 01:11:15;;;;;;;0.60;0.60;;;;;;;7.86;66.57;98572.50;5112597;27;20123;-71
2021/09/04 01:13:42;;;;;;;0.95;0.95;;;;;;;7.81;65.58;98589.34;5094428;28;20083;-70
2021/09/04 01:16:08;;;;;;;0.55;0.55;;;;;;;7.79;66.61;98583.38;5112535;28;20036;-69
2021/09/04 01:18:34;;;;;;;0.50;0.50;;;;;;;7.72;67.37;98585.53;5094272;28;20504;-71
2021/09/04 01:21:01;;;;;;;0.30;0.30;;;;;;;7.80;68.18;98591.09;5112442;28;20043;-70
2021/09/04 01:23:27;;;;;;;0.50;0.50;;;;;;;7.74;68.85;98596.69;5112165;28;20051;-70
2021/09/04 01:25:54;;;;;;;0.40;0.40;;;;;;;7.83;67.38;98595.25;5112389;28;20051;-70
2021/09/04 01:28:20;;;;;;;0.85;0.85;;;;;;;7.78;68.25;98592.13;5112354;28;20032;-69
2021/09/04 01:30:46;;;;;;;0.50;0.50;;;;;;;7.70;69.37;98591.75;5112245;28;20043;-69
2021/09/04 01:33:12;;;;;;;0.52;0.52;;;;;;;7.65;69.94;98591.25;5093766;28;20053;-71
2021/09/04 01:35:38;;;;;;;0.50;0.50;;;;;;;7.61;70.50;98576.78;5112138;28;20512;-71
2021/09/04 01:38:04;;;;;;;0.30;0.30;;;;;;;7.54;70.21;98591.06;5112284;28;20042;-70
2021/09/04 01:40:30;;;;;;;0.43;0.43;;;;;;;7.57;70.23;98601.25;5112538;28;20036;-69
2021/09/04 01:42:56;;;;;;;0.75;0.75;;;;;;;7.52;70.17;98590.34;5113582;28;20131;-71
2021/09/04 01:45:22;;;;;;;0.43;0.43;;;;;;;7.52;70.16;98592.94;5112820;28;20055;-72
2021/09/04 01:47:48;;;;;;;0.50;0.50;;;;;;;7.55;70.14;98591.00;5112199;28;20459;-70
2021/09/04 01:50:14;;;;;;;0.50;0.50;;;;;;;7.56;70.07;98600.41;5112108;28;20043;-70
2021/09/04 01:52:41;;;;;;;0.38;0.38;;;;;;;7.57;69.76;98583.09;5111665;28;20181;-71
2021/09/04 01:55:08;;;;;;;0.95;0.95;;;;;;;7.56;69.66;98591.81;5093840;28;20039;-70
2021/09/04 01:57:34;;;;;;;0.50;0.50;;;;;;;7.53;69.91;98592.00;5110308;28;20054;-70
2021/09/04 02:00:01;;;;;;;0.60;0.60;;;;;;;7.53;69.84;98602.38;5110572;28;20035;-70
2021/09/04 02:02:27;;;;;;;0.90;0.90;;;;;;;7.51;70.06;98605.09;5093148;28;20096;-70
2021/09/04 02:04:53;;;;;;;0.30;0.30;;;;;;;7.52;69.85;98596.38;5111796;28;20461;-70
2021/09/04 02:07:19;;;;;;;0.50;0.50;;;;;;;7.52;69.94;98601.56;5111382;28;20062;-69
2021/09/04 02:09:45;;;;;;;0.40;0.40;;;;;;;7.51;69.70;98614.63;5093406;28;20153;-70
2021/09/04 02:12:11;;;;;;;0.55;0.55;;;;;;;7.49;69.82;98606.13;5111474;28;20466;-69
2021/09/04 02:14:37;;;;;;;0.88;0.82;;;;;;;7.48;70.21;98609.63;5110113;28;20125;-70
2021/09/04 02:17:03;;;;;;;0.43;0.43;;;;;;;7.48;69.51;98612.22;5110100;28;20063;-70
2021/09/04 02:19:30;;;;;;;0.57;0.57;;;;;;;7.54;68.88;98609.25;5111220;28;20096;-70
2021/09/04 02:21:57;;;;;;;0.77;0.77;;;;;;;7.55;69.23;98610.91;5111412;28;20035;-71
2021/09/04 02:24:23;;;;;;;0.40;0.40;;;;;;;7.59;69.04;98612.41;5111263;28;20047;-71
2021/09/04 02:26:51;;;;;;;0.85;0.85;;;;;;;7.55;68.75;98627.34;5111186;28;20130;-70
2021/09/04 02:29:17;;;;;;;0.65;0.65;;;;;;;7.52;68.63;98616.31;5109985;28;20039;-70
2021/09/04 02:31:43;;;;;;;0.35;0.35;;;;;;;7.46;68.56;98607.13;5092614;28;20527;-70
2021/09/04 02:34:11;;;;;;;0.50;0.50;;;;;;;7.48;68.65;98625.22;5111154;28;20047;-70
2021/09/04 02:36:38;;;;;;;0.43;0.43;;;;;;;7.51;68.41;98625.84;5110835;28;20126;-70
2021/09/04 02:39:05;;;;;;;0.70;0.70;;;;;;;7.48;68.62;98630.41;5110856;28;20031;-71
2021/09/04 02:41:33;;;;;;;0.40;0.40;;;;;;;7.42;68.81;98630.78;5092598;28;20453;-69
2021/09/04 02:43:59;;;;;;;0.30;0.30;;;;;;;7.41;69.01;98634.31;5092726;28;20504;-70
2021/09/04 02:46:25;;;;;;;0.40;0.40;;;;;;;7.32;68.88;98628.75;5110491;28;20419;-70
2021/09/04 02:48:52;;;;;;;0.50;0.50;;;;;;;7.37;69.10;98649.22;5109699;28;20051;-70
2021/09/04 02:51:18;;;;;;;0.80;0.80;;;;;;;7.37;69.13;98649.22;5110268;28;20039;-70
2021/09/04 02:53:44;;;;;;;0.52;0.52;;;;;;;7.38;69.08;98650.06;5110525;28;20043;-70
2021/09/04 02:56:11;;;;;;;0.38;0.38;;;;;;;7.35;69.28;98653.69;5109541;28;20039;-69
2021/09/04 02:58:37;;;;;;;0.47;0.47;;;;;;;7.36;69.77;98659.72;5109256;28;20153;-69
2021/09/04 03:01:03;;;;;;;1.10;1.10;;;;;;;7.34;69.30;98652.84;5110562;28;20118;-70
2021/09/04 03:03:29;;;;;;;0.40;0.40;;;;;;;7.37;69.38;98646.63;5092100;28;20039;-71
2021/09/04 03:05:57;;;;;;;0.60;0.60;;;;;;;7.34;69.66;98642.47;5109377;28;20381;-70
2021/09/04 03:08:27;;;;;;;1.05;1.05;;;;;;;7.36;69.44;98647.59;5110463;28;20429;-69
2021/09/04 03:10:53;;;;;;;0.40;0.40;;;;;;;7.36;69.00;98644.16;5110611;28;20040;-69
2021/09/04 03:13:19;;;;;;;0.30;0.30;;;;;;;7.30;69.08;98653.97;5110303;28;20092;-69
2021/09/04 03:15:45;;;;;;;0.63;0.63;;;;;;;7.30;69.29;98651.38;5074980;28;20048;-69
2021/09/04 03:18:12;;;;;;;0.47;0.47;;;;;;;7.37;69.03;98653.59;5109018;28;20454;-70
2021/09/04 03:20:39;;;;;;;0.52;0.52;;;;;;;7.34;68.76;98660.63;5110215;28;20031;-68
2021/09/04 03:23:06;;;;;;;0.45;0.45;;;;;;;7.28;68.97;98645.44;5110163;28;20226;-70
2021/09/04 03:25:33;;;;;;;1.02;1.02;;;;;;;7.36;68.97;98667.50;5091872;28;20043;-70
2021/09/04 03:28:00;;;;;;;0.63;0.63;;;;;;;7.35;68.69;98671.88;5110210;28;20256;-69
2021/09/04 03:30:26;;;;;;;0.90;0.90;;;;;;;7.39;68.85;98673.34;5109096;28;20044;-69
2021/09/04 03:32:52;;;;;;;1.10;1.10;;;;;;;7.38;68.85;98676.03;5109820;28;20047;-68
2021/09/04 03:35:20;;;;;;;0.68;0.68;;;;;;;7.34;68.96;98686.59;5110213;28;20039;-68
2021/09/04 03:37:47;;;;;;;0.52;0.52;;;;;;;7.36;68.95;98689.13;5109727;28;20040;-68
2021/09/04 03:40:14;;;;;;;0.70;0.70;;;;;;;7.37;69.29;98672.59;5091964;28;20118;-69
2021/09/04 03:42:40;;;;;;;0.45;0.45;;;;;;;7.32;69.19;98682.44;5091597;28;20568;-68
2021/09/04 03:45:07;;;;;;;7.10;1.17;;;;;;;7.39;69.29;98672.50;5109687;28;20574;-68
2021/09/04 03:47:33;;;;;;;0.80;0.80;;;;;;;7.44;68.54;98684.28;5091557;28;20561;-69
2021/09/04 03:50:00;;;;;;;0.88;0.88;;;;;;;7.39;68.62;98678.53;5109774;28;20044;-70
2021/09/04 03:52:27;;;;;;;0.82;0.82;;;;;;;7.40;68.54;98671.56;5109831;28;20119;-67
2021/09/04 03:54:53;;;;;;;0.82;0.82;;;;;;;7.44;68.03;98702.44;5109766;28;20134;-68
2021/09/04 03:57:22;;;;;;;2.20;0.90;;;;;;;7.44;67.88;98697.25;5109734;28;20040;-68
2021/09/04 03:59:48;;;;;;;1.13;1.13;;;;;;;7.55;67.83;98699.22;5108519;28;20050;-67
2021/09/04 04:02:15;;;;;;;0.98;0.98;;;;;;;7.58;67.95;98709.41;5093020;28;20040;-66
2021/09/04 04:04:41;;;;;;;0.47;0.47;;;;;;;7.66;67.50;98712.34;5112170;28;20059;-66
2021/09/04 04:07:07;;;;;;;0.50;0.50;;;;;;;7.58;67.33;98704.22;5112477;28;20523;-68
2021/09/04 04:09:33;;;;;;;1.08;0.95;;;;;;;7.67;67.65;98719.22;5113659;28;20408;-68
2021/09/04 04:11:59;;;;;;;0.77;0.77;;;;;;;7.64;67.59;98711.63;5113742;28;20035;-67
2021/09/04 04:14:25;;;;;;;1.05;1.05;;;;;;;7.74;67.67;98721.38;5113973;28;20050;-67
2021/09/04 04:16:51;;;;;;;0.90;0.90;;;;;;;7.73;67.62;98726.63;5113535;28;20043;-67
2021/09/04 04:19:17;;;;;;;1.02;1.02;;;;;;;7.79;67.90;98737.47;5113759;28;20412;-67
2021/09/04 04:21:43;;;;;;;1.27;1.27;;;;;;;7.85;67.79;98738.91;5095320;28;20118;-67
2021/09/04 04:24:09;;;;;;;1.13;1.13;;;;;;;7.86;67.74;98745.75;5113641;28;20196;-67
2021/09/04 04:26:37;;;;;;;0.85;0.85;;;;;;;7.80;67.91;98725.34;5113477;28;20039;-68
2021/09/04 04:29:03;;;;;;;1.10;1.10;;;;;;;7.81;68.24;98742.59;5113234;28;20051;-68
2021/09/04 04:31:30;;;;;;;0.77;0.77;;;;;;;7.82;67.97;98749.44;5112558;28;20046;-66
2021/09/04 04:33:56;;;;;;;0.80;0.80;;;;;;;7.83;68.47;98743.34;5113224;28;20126;-68
2021/09/04 04:36:23;;;;;;;1.38;1.23;;;;;;;7.82;68.06;98744.25;5073622;28;20143;-67
2021/09/04 04:38:49;;;;;;;0.38;0.38;;;;;;;7.70;69.55;98734.63;5104936;28;20361;-67
2021/09/04 04:41:15;;;;;;;1.42;1.33;;;;;;;7.79;69.76;98765.22;5113323;28;20062;-67
2021/09/04 04:43:42;;;;;;;0.98;0.98;;;;;;;7.78;69.65;98754.03;5112896;28;20568;-67
2021/09/04 04:46:09;;;;;;;0.50;0.50;;;;;;;7.70;69.90;98761.44;5112962;28;20797;-68
2021/09/04 04:48:38;;;;;;;0.80;0.80;;;;;;;7.78;69.49;98763.56;5112995;28;20062;-67
2021/09/04 04:51:05;;;;;;;0.77;0.77;;;;;;;7.91;69.21;98771.44;5113089;28;20515;-69
2021/09/04 04:53:31;;;;;;;0.68;0.68;;;;;;;7.89;70.03;98761.13;5113000;28;20053;-69
2021/09/04 04:55:59;;;;;;;0.43;0.43;;;;;;;7.76;70.39;98768.00;5094898;28;20078;-68
2021/09/04 04:58:25;;;;;;;0.60;0.60;;;;;;;7.79;70.82;98780.81;5113043;28;20042;-68
2021/09/04 05:00:51;;;;;;;0.85;0.85;;;;;;;7.70;70.86;98768.38;5112637;28;20039;-68
2021/09/04 05:03:17;;;;;;;0.40;0.40;;;;;;;7.70;70.74;98778.78;5112904;28;20165;-68
2021/09/04 05:05:43;;;;;;;3.20;0.60;;;;;;;7.64;71.33;98795.56;5112666;28;20040;-67
2021/09/04 05:08:11;;;;;;;0.50;0.50;;;;;;;7.72;70.74;98792.53;5112753;28;20044;-69
2021/09/04 05:10:37;;;;;;;0.40;0.40;;;;;;;7.70;71.04;98773.59;5112701;28;20043;-68
2021/09/04 05:13:03;;;;;;;0.68;0.68;;;;;;;7.73;70.77;98797.59;5094372;28;20047;-68
2021/09/04 05:15:29;;;;;;;0.77;0.77;;;;;;;7.69;71.38;98774.53;5094013;28;20047;-72
2021/09/04 05:17:57;;;;;;;0.57;0.57;;;;;;;7.60;72.54;98796.69;5112339;28;20184;-71
2021/09/04 05:20:23;;;;;;;0.93;0.93;;;;;;;7.67;73.88;98786.75;5094304;28;20609;-71
2021/09/04 05:22:50;;;;;;;0.40;0.40;;;;;;;7.57;73.62;98803.81;5077425;28;20082;-70
2021/09/04 05:25:17;;;;;;;0.60;0.60;;;;;;;7.65;72.89;98796.41;5112459;28;20516;-70
2021/09/04 05:27:44;;;;;;;0.60;0.60;;;;;;;7.61;74.10;98807.91;5093776;28;20055;-69
2021/09/04 05:30:11;;;;;;;0.60;0.60;;;;;;;7.56;73.95;98799.56;5112334;28;20130;-69
2021/09/04 05:32:37;;;;;;;0.47;0.47;;;;;;;7.55;74.76;98809.13;5093881;28;20067;-70
2021/09/04 05:35:07;;;;;;;0.60;0.60;;;;;;;7.76;72.50;98805.22;5095095;28;20461;-71
2021/09/04 05:37:33;;;;;;;1.63;1.53;;;;;;;7.88;72.51;98816.66;5077515;28;20417;-70
2021/09/04 05:39:59;;;;;;;0.60;0.60;;;;;;;8.10;71.45;98811.81;5112108;28;20092;-71
2021/09/04 05:42:25;;;;;;;0.50;0.50;;;;;;;8.18;70.96;98811.34;5070358;28;20036;-71
2021/09/04 05:44:50;;;;;;;0.90;0.90;;;;;;;8.20;70.88;98819.88;5110933;27;20038;-70
2021/09/04 05:47:16;;;;;;;0.40;0.40;;;;;;;8.22;72.47;98818.84;5104905;28;20402;-73
2021/09/04 05:49:42;;;;;;;0.50;0.50;;;;;;;8.40;71.96;98823.88;5108836;27;20121;-72
2021/09/04 05:52:08;;;;;;;0.68;0.68;;;;;;;8.51;70.97;98829.25;5132993;27;20039;-71
2021/09/04 05:54:34;;;;;;;4.45;0.93;;;;;;;8.55;69.93;98823.72;5117206;27;20529;-72
2021/09/04 05:57:01;;;;;;;0.55;0.55;;;;;;;8.57;70.36;98827.09;5111494;28;20093;-71
2021/09/04 05:59:27;;;;;;;0.60;0.60;;;;;;;8.70;69.47;98809.75;5076142;28;20513;-71
2021/09/04 06:01:53;;;;;;;0.40;0.40;;;;;;;8.97;67.69;98832.31;5090727;28;20291;-71
2021/09/04 06:04:19;;;;;;;0.40;0.40;;;;;;;8.54;68.90;98822.06;5090129;28;20540;-72
2021/09/04 06:06:45;;;;;;;0.65;0.65;;;;;;;8.57;69.32;98831.44;5090948;28;20142;-70
2021/09/04 06:09:11;;;;;;;0.50;0.50;;;;;;;8.51;67.08;98837.03;5110767;28;20047;-70
2021/09/04 06:11:41;;;;;;;0.40;0.40;;;;;;;8.65;67.75;98834.38;5111087;28;20039;-71
2021/09/04 06:14:09;;;;;;;1.23;1.23;;;;;;;8.68;68.07;98840.22;5074319;28;20047;-73
2021/09/04 06:16:40;;;;;;;0.47;0.47;;;;;;;8.79;66.20;98827.38;5088078;28;20051;-71
2021/09/04 06:19:08;;;;;;;1.17;1.05;;;;;;;9.08;65.83;98838.50;5108346;28;20043;-69
2021/09/04 06:21:34;;;;;;;1.90;1.17;;;;;;;8.93;65.48;98843.88;5105060;28;20039;-72
2021/09/04 06:24:01;;;;;;;0.80;0.80;;;;;;;8.49;67.38;98833.69;5091951;28;20163;-70
2021/09/04 06:26:27;;;;;;;0.47;0.47;;;;;;;8.56;67.94;98838.41;5109204;28;20047;-73
2021/09/04 06:28:55;;;;;;;0.60;0.60;;;;;;;8.60;67.53;98841.66;5103547;28;20066;-71
2021/09/04 06:31:21;;;;;;;0.40;0.40;;;;;;;8.62;66.12;98831.97;5098324;28;20039;-71
2021/09/04 06:33:47;;;;;;;4.75;0.98;;;;;;;9.25;63.35;98851.28;5109916;28;20040;-71
2021/09/04 06:36:13;;;;;;;0.90;0.90;;;;;;;9.95;61.20;98841.31;5099854;28;20092;-71
2021/09/04 06:38:40;;;;;;;0.50;0.50;;;;;;;9.71;62.73;98832.56;5081600;28;20199;-72
2021/09/04 06:41:06;;;;;;;0.60;0.60;;;;;;;9.69;62.85;98843.09;5088441;28;20047;-71
2021/09/04 06:43:32;;;;;;;0.70;0.70;;;;;;;9.84;62.57;98849.91;5071494;28;20040;-72
2021/09/04 06:45:58;;;;;;;1.00;1.00;;;;;;;9.34;61.77;98848.06;5089160;28;20485;-72
2021/09/04 06:48:24;;;;;;;0.68;0.68;;;;;;;9.11;61.57;98833.09;5090650;28;20043;-72
2021/09/04 06:50:50;;;;;;;1.67;0.85;;;;;;;9.30;63.13;98841.38;5109923;28;20050;-69
2021/09/04 06:53:19;;;;;;;0.40;0.40;;;;;;;9.36;63.07;98840.13;5089653;28;20035;-71
2021/09/04 06:55:46;;;;;;;0.80;0.80;;;;;;;9.57;61.39;98835.28;5108139;28;20042;-68
2021/09/04 06:58:12;;;;;;;0.93;0.93;;;;;;;10.05;58.64;98836.31;5103000;28;20061;-72
2021/09/04 07:00:39;;;;;;;1.02;0.93;;;;;;;9.95;58.60;98846.53;5070439;28;20039;-70
2021/09/04 07:03:06;;;;;;;0.75;0.75;;;;;;;10.76;55.73;98849.56;5074116;28;20646;-69
2021/09/04 07:05:32;;;;;;;0.80;0.80;;;;;;;11.24;55.09;98830.31;5109668;28;20044;-69
2021/09/04 07:07:58;;;;;;;0.95;0.95;;;;;;;11.39;52.96;98834.38;5089121;28;20055;-69
2021/09/04 07:10:24;;;;;;;0.80;0.80;;;;;;;11.21;52.95;98835.75;5107310;28;20469;-69
2021/09/04 07:12:50;;;;;;;0.80;0.80;;;;;;;12.42;49.00;98831.69;5106778;27;20181;-71
2021/09/04 07:15:21;;;;;;;0.80;0.80;;;;;;;11.73;50.61;98850.19;5095032;28;20040;-73
2021/09/04 07:17:50;;;;;;;1.02;1.02;;;;;;;10.74;54.74;98846.19;5103832;28;20608;-74
2021/09/04 07:20:16;;;;;;;0.40;0.40;;;;;;;10.97;54.18;98843.59;5107812;28;20134;-73
2021/09/04 07:22:44;;;;;;;0.85;0.85;;;;;;;11.06;54.49;98847.31;5108643;28;20046;-74
2021/09/04 07:25:10;;;;;;;1.10;1.10;;;;;;;12.48;49.25;98843.44;5089922;28;20691;-72
2021/09/04 07:27:36;;;;;;;0.60;0.60;;;;;;;11.96;50.21;98844.06;5109155;28;20051;-74
2021/09/04 07:30:02;;;;;;;1.42;1.40;;;;;;;12.96;48.36;98844.75;5107279;28;20035;-72
2021/09/04 07:32:28;;;;;;;1.05;1.05;;;;;;;12.70;48.24;98826.84;5081792;28;20028;-72
2021/09/04 07:34:57;;;;;;;0.70;0.70;;;;;;;11.83;50.70;98843.31;5088529;28;20051;-73
2021/09/04 07:37:23;;;;;;;0.77;0.77;;;;;;;11.76;51.32;98856.03;5070684;28;20060;-73
2021/09/04 07:39:49;;;;;;;0.73;0.73;;;;;;;10.82;53.10;98875.22;5087236;28;20048;-73
2021/09/04 07:42:15;;;;;;;0.50;0.50;;;;;;;10.60;53.12;98857.63;5094194;28;20510;-71
2021/09/04 07:44:41;;;;;;;0.90;0.90;;;;;;;10.72;54.35;98864.59;5107839;28;20043;-72
2021/09/04 07:47:08;;;;;;;0.60;0.60;;;;;;;11.70;51.63;98860.84;5108984;28;20540;-71
2021/09/04 07:49:34;;;;;;;0.60;0.60;;;;;;;10.31;55.58;98859.69;5108937;28;20044;-72
2021/09/04 07:52:00;;;;;;;0.90;0.90;;;;;;;11.24;52.26;98864.28;5101092;28;20039;-74
2021/09/04 07:54:26;;;;;;;0.60;0.60;;;;;;;11.74;51.80;98865.78;5088256;28;20122;-76
2021/09/04 07:56:52;;;;;;;1.10;1.10;;;;;;;12.72;48.64;98845.91;5084624;28;20043;-72
2021/09/04 07:59:19;;;;;;;1.20;1.10;;;;;;;12.85;47.27;98844.81;5104463;28;20075;-71
2021/09/04 08:01:45;;;;;;;2.05;1.13;;;;;;;13.77;44.82;98852.06;5096196;28;20126;-73
2021/09/04 08:04:13;;;;;;;0.77;0.77;;;;;;;12.67;46.55;98837.56;5108702;28;20066;-71
2021/09/04 08:06:39;;;;;;;0.80;0.80;;;;;;;12.36;48.74;98863.56;5108139;28;20105;-72
2021/09/04 08:09:05;;;;;;;1.05;1.05;;;;;;;13.19;47.08;98832.44;5107708;28;20043;-73
2021/09/04 08:11:31;;;;;;;0.63;0.63;;;;;;;12.32;50.34;98851.66;5103457;28;20044;-72
2021/09/04 08:13:57;;;;;;;0.32;0.32;;;;;;;11.98;50.52;98857.81;5100930;28;20450;-71
2021/09/04 08:16:23;;;;;;;1.30;1.20;;;;;;;12.29;48.93;98861.53;5106570;28;20039;-72
2021/09/04 08:18:49;;;;;;;0.70;0.70;;;;;;;12.56;46.79;98863.78;5106484;28;20424;-72
2021/09/04 08:21:16;;;;;;;1.00;1.00;;;;;;;12.04;47.99;98867.84;5106815;28;20039;-72
2021/09/04 08:23:41;;;;;;;0.98;0.95;;;;;;;11.75;49.62;98877.88;5106580;28;20035;-71
2021/09/04 08:26:07;;;;;;;0.80;0.80;;;;;;;10.97;50.61;98885.38;5088310;28;20040;-71
2021/09/04 08:28:34;;;;;;;0.70;0.70;;;;;;;10.35;56.13;98887.22;5105018;28;20047;-72
2021/09/04 08:31:00;;;;;;;0.55;0.55;;;;;;;9.84;61.20;98889.00;5106586;28;20042;-73
2021/09/04 08:33:26;;;;;;;1.00;1.00;;;;;;;9.84;60.79;98890.75;5106389;28;20035;-72
2021/09/04 08:35:52;;;;;;;0.70;0.70;;;;;;;11.03;57.15;98891.94;5085860;28;20040;-72
2021/09/04 08:38:19;;;;;;;1.20;1.20;;;;;;;12.17;53.43;98876.38;5103935;28;20078;-72
2021/09/04 08:40:46;;;;;;;0.98;0.98;;;;;;;12.10;54.11;98888.31;5086483;28;20071;-73
2021/09/04 08:43:12;;;;;;;0.98;0.93;;;;;;;12.57;52.27;98891.63;5088032;28;20051;-73
2021/09/04 08:45:39;;;;;;;0.93;0.93;;;;;;;12.40;51.91;98885.91;5087373;28;20509;-71
2021/09/04 08:48:07;;;;;;;0.88;0.88;;;;;;;12.01;53.31;98884.59;5106987;28;20043;-72
2021/09/04 08:50:33;;;;;;;0.40;0.40;;;;;;;11.54;54.67;98884.69;5110595;28;20047;-72
2021/09/04 08:52:59;;;;;;;0.80;0.80;;;;;;;11.15;55.47;98895.47;5110760;28;20032;-73
2021/09/04 08:55:27;;;;;;;0.63;0.63;;;;;;;11.62;56.05;98886.72;5112041;28;20078;-72
2021/09/04 08:57:54;;;;;;;0.77;0.77;;;;;;;11.93;54.30;98891.38;5111680;28;20043;-72
2021/09/04 09:00:30;;;;;;;0.55;0.55;;;;;;;11.61;56.59;98885.06;5111520;28;20153;-74
2021/09/04 09:02:56;;;;;;;0.80;0.80;;;;;;;12.31;55.61;98891.03;5110836;28;20039;-72
2021/09/04 09:05:22;;;;;;;1.23;0.70;;;;;;;12.05;51.78;98890.41;5110161;28;20076;-71
2021/09/04 09:07:48;;;;;;;0.63;0.63;;;;;;;11.40;53.65;98903.16;5111807;28;20126;-71
2021/09/04 09:10:23;;;;;;;0.57;0.57;;;;;;;10.60;54.96;98901.19;5112035;28;20676;-71
2021/09/04 09:12:49;;;;;;;0.70;0.70;;;;;;;10.98;54.70;98914.94;5111742;28;20516;-71
2021/09/04 09:15:22;;;;;;;1.30;1.30;;;;;;;11.50;52.72;98904.16;5057690;28;20052;-72
2021/09/04 09:18:07;;;;;;;0.40;0.40;;;;;;;11.06;54.21;98899.56;5100943;27;20044;-72
2021/09/04 09:20:34;;;;;;;0.45;0.45;;;;;;;11.18;54.60;98914.34;5094019;28;20040;-72
2021/09/04 09:23:13;;;;;;;2.83;0.70;;;;;;;11.52;53.64;98905.72;5111613;28;20035;-75
2021/09/04 09:25:42;;;;;;;0.43;0.43;;;;;;;11.51;53.64;98908.44;5110613;28;20100;-73
2021/09/04 09:28:15;;;;;;;0.55;0.55;;;;;;;11.68;52.70;98904.59;5092628;28;20051;-72
2021/09/04 09:30:45;;;;;;;0.65;0.65;;;;;;;11.28;53.90;98914.53;5112141;28;20044;-73
2021/09/04 09:33:14;;;;;;;0.45;0.45;;;;;;;11.95;51.77;98913.00;5110432;28;20093;-72
2021/09/04 09:35:42;;;;;;;0.60;0.60;;;;;;;12.25;49.51;98902.81;5103429;28;20036;-72
2021/09/04 09:38:09;;;;;;;0.40;0.40;;;;;;;12.45;50.30;98904.72;5107021;28;20039;-72
2021/09/04 09:40:35;;;;;;;0.70;0.70;;;;;;;11.77;51.21;98901.31;5084903;28;20064;-74
2021/09/04 09:43:11;;;;;;;0.60;0.60;;;;;;;11.25;53.38;98912.13;5113937;28;20043;-74
2021/09/04 09:45:41;;;;;;;0.50;0.50;;;;;;;10.41;57.47;98933.75;5078202;28;20040;-74
2021/09/04 09:48:07;;;;;;;0.30;0.30;;;;;;;9.73;63.27;98929.72;5086900;28;20067;-71
2021/09/04 09:50:34;;;;;;;0.50;0.50;;;;;;;9.36;65.25;98945.16;5084646;28;20027;-73
2021/09/04 09:53:00;;;;;;;0.57;0.57;;;;;;;9.16;68.98;98955.19;5091847;28;20995;-72
2021/09/04 09:55:26;;;;;;;0.50;0.50;;;;;;;9.06;68.89;98944.53;5111019;28;20039;-72
2021/09/04 09:57:52;;;;;;;0.47;0.47;;;;;;;9.46;69.25;98949.78;5090729;28;20092;-72
2021/09/04 10:00:18;;;;;;;0.40;0.40;;;;;;;9.85;68.97;98944.53;5090575;28;20664;-70
2021/09/04 10:02:46;;;;;;;0.52;0.52;;;;;;;10.17;69.31;98953.72;5108666;28;20108;-71
2021/09/04 10:05:12;;;;;;;0.50;0.50;;;;;;;10.61;68.35;98939.38;5090190;28;20508;-70
2021/09/04 10:07:39;;;;;;;0.40;0.40;;;;;;;10.53;62.43;98941.69;5107095;28;20043;-71
2021/09/04 10:10:05;;;;;;;1.00;1.00;;;;;;;10.42;59.85;98940.66;5106898;28;20047;-73
2021/09/04 10:12:31;;;;;;;0.50;0.50;;;;;;;10.67;59.68;98954.59;5108214;28;20035;-72
2021/09/04 10:14:57;;;;;;;0.50;0.50;;;;;;;10.82;59.78;98943.94;5108868;28;20036;-72
2021/09/04 10:17:23;;;;;;;0.50;0.50;;;;;;;11.11;59.87;98954.91;5110737;28;20039;-72
2021/09/04 10:19:49;;;;;;;0.90;0.90;;;;;;;11.33;59.17;98949.81;5110526;28;20519;-72
2021/09/04 10:22:15;;;;;;;0.57;0.57;;;;;;;11.24;58.54;98932.19;5074380;28;20036;-70
2021/09/04 10:24:49;;;;;;;0.40;0.40;;;;;;;11.02;60.00;98960.81;5088821;28;20119;-72
2021/09/04 10:27:37;;;;;;;0.65;0.65;;;;;;;11.12;59.23;98956.59;5105588;28;20411;-71
2021/09/04 10:30:23;;;;;;;0.90;0.90;;;;;;;11.21;56.63;98965.53;5091680;28;20700;-71
2021/09/04 10:33:10;;;;;;;0.50;0.50;;;;;;;11.47;57.81;98960.13;5104217;28;20509;-71
2021/09/04 10:35:50;;;;;;;0.52;0.52;;;;;;;11.43;57.10;98955.22;5089852;28;20032;-71
2021/09/04 10:38:19;;;;;;;0.80;0.80;;;;;;;11.67;56.15;98965.66;5107968;28;20040;-70
2021/09/04 10:40:45;;;;;;;0.50;0.50;;;;;;;11.79;56.12;98960.38;5107651;28;20285;-71
2021/09/04 10:43:12;;;;;;;1.05;1.02;;;;;;;11.96;55.01;98964.38;5106399;28;20047;-72
2021/09/04 10:45:38;;;;;;;1.73;0.52;;;;;;;11.80;55.16;98948.16;5086248;28;20040;-71
2021/09/04 10:48:20;;;;;;;0.52;0.52;;;;;;;11.81;54.26;98945.41;5088095;28;20086;-72
2021/09/04 10:51:03;;;;;;;0.43;0.43;;;;;;;12.26;52.93;98943.75;5104939;28;20052;-73
2021/09/04 10:53:52;;;;;;;0.50;0.50;;;;;;;11.99;52.62;98935.34;5086592;28;20097;-73
2021/09/04 10:56:24;;;;;;;0.70;0.70;;;;;;;11.79;51.80;98949.09;5089184;28;20048;-73
2021/09/04 10:58:51;;;;;;;0.57;0.57;;;;;;;11.91;52.08;98956.84;5084675;28;20052;-74
2021/09/04 11:01:32;;;;;;;0.85;0.85;;;;;;;11.82;52.95;98961.94;5073835;28;20386;-74
2021/09/04 11:03:58;;;;;;;0.40;0.40;;;;;;;11.70;52.28;98926.22;5088609;28;20090;-72
2021/09/04 11:06:25;;;;;;;0.30;0.30;;;;;;;11.71;52.09;98946.22;5087698;28;20130;-73
2021/09/04 11:08:52;;;;;;;0.30;0.30;;;;;;;11.61;52.77;98956.50;5087737;28;20126;-75
2021/09/04 11:11:28;;;;;;;0.63;0.63;;;;;;;11.85;52.43;98966.94;5088750;28;20390;-72
2021/09/04 11:13:55;;;;;;;0.65;0.65;;;;;;;12.23;54.12;98961.47;5086935;28;20094;-71
2021/09/04 11:16:42;;;;;;;1.48;1.42;;;;;;;12.15;53.49;98958.56;5085453;28;20047;-75
2021/09/04 11:19:13;;;;;;;0.50;0.50;;;;;;;12.12;54.09;98964.03;5084443;28;20044;-74
2021/09/04 11:21:59;;;;;;;0.50;0.50;;;;;;;12.33;51.82;98944.94;5081301;28;20101;-75
2021/09/04 11:24:30;;;;;;;0.40;0.40;;;;;;;11.91;51.95;98962.06;5104449;28;20036;-75
2021/09/04 11:27:06;;;;;;;;;;;;;;;11.83;51.27;98946.16;5089159;28;20130;-75
2021/09/04 11:29:42;;;;;;;0.50;0.50;;;;;;;11.59;50.09;98940.06;5104183;28;20447;-73
2021/09/04 11:32:09;;;;;;;0.45;0.45;;;;;;;11.80;49.09;98949.00;5088752;28;20386;-72
2021/09/04 11:34:48;;;;;;;0.45;0.45;;;;;;;12.22;50.01;98970.25;5088748;28;20046;-73
2021/09/04 11:37:18;;;;;;;0.43;0.43;;;;;;;12.17;51.12;98967.97;5084251;28;20123;-73
2021/09/04 11:39:44;;;;;;;0.40;0.40;;;;;;;11.44;53.95;98962.94;5068833;28;20113;-72